^^
Station Historical Data
 
Daily Summary for July 02, 2015 Units:  English    Metric   Both
« Previous Day
Next Day »
Daily Weekly Monthly Yearly Custom
  Current: High: Low: Average:
Temperature: 57.2 °F 60.1 °F 57.2 °F 58.4 °F
Dew Point: 56.3 °F 57.6 °F 56.2 °F 56.7 °F
Humidity: 97% 97% 90% 94%
Wind Speed: 0.0mph 0.3mph 0.0mph 0.2mph
Wind Gust: 0.0mph 1.6mph - -
WindCalm - - East
Pressure: 29.95 in 29.99 in 29.95 in -
Precipitation: 0.00 in      
Historical Graphs
 
 
Tabular Data for July 02, 2015
Time Temperature Dew Point Pressure Wind Wind Speed Wind Gust Humidity Rainfall Rate (Hourly)
00:02 60.1 °F 57.1 °F 29.99 in Calm     90% 0.00 in
00:07 60.1 °F 57.1 °F 29.99 in Calm     90% 0.00 in
00:12 59.9 °F 57.3 °F 29.99 in Calm     91% 0.00 in
00:17 59.9 °F 57.3 °F 29.99 in Calm     91% 0.00 in
00:22 59.9 °F 57.3 °F 29.98 in Calm     91% 0.00 in
00:27 59.9 °F 57.6 °F 29.98 in Calm     92% 0.00 in
00:32 59.7 °F 57.4 °F 29.98 in Calm     92% 0.00 in
00:37 59.7 °F 57.4 °F 29.99 in Calm     92% 0.00 in
00:42 59.7 °F 57.4 °F 29.98 in Calm     92% 0.00 in
00:47 59.5 °F 57.2 °F 29.98 in Calm     92% 0.00 in
00:52 59.2 °F 56.9 °F 29.98 in Calm     92% 0.00 in
00:57 59.2 °F 56.9 °F 29.97 in Calm     92% 0.00 in
01:02 59.0 °F 56.7 °F 29.98 in Calm     92% 0.00 in
01:07 59.0 °F 56.7 °F 29.98 in Calm     92% 0.00 in
01:12 58.6 °F 56.3 °F 29.98 in Calm     92% 0.00 in
01:17 58.4 °F 56.4 °F 29.97 in Calm     93% 0.00 in
01:22 58.4 °F 56.4 °F 29.98 in Calm     93% 0.00 in
01:27 58.4 °F 56.4 °F 29.97 in Calm     93% 0.00 in
01:32 58.4 °F 56.4 °F 29.97 in Calm     93% 0.00 in
01:37 58.4 °F 56.7 °F 29.98 in Calm     94% 0.00 in
01:42 58.4 °F 56.7 °F 29.97 in Calm     94% 0.00 in
01:47 58.3 °F 56.6 °F 29.97 in Calm     94% 0.00 in
01:52 58.1 °F 56.4 °F 29.97 in Calm     94% 0.00 in
01:57 58.1 °F 56.4 °F 29.97 in Calm     94% 0.00 in
02:02 58.1 °F 56.4 °F 29.98 in Calm     94% 0.00 in
02:07 58.1 °F 56.4 °F 29.97 in Calm     94% 0.00 in
02:12 57.9 °F 56.2 °F 29.97 in Calm     94% 0.00 in
02:17 57.9 °F 56.5 °F 29.97 in Calm     95% 0.00 in
02:22 57.9 °F 56.5 °F 29.97 in Calm     95% 0.00 in
02:27 57.9 °F 56.5 °F 29.97 in Calm   0.7 mph 95% 0.00 in
02:33 57.9 °F 56.5 °F 29.97 in South 0.3 mph 1.6 mph 95% 0.00 in
02:38 57.9 °F 56.5 °F 29.97 in South 0.3 mph 1.6 mph 95% 0.00 in
02:43 57.9 °F 56.5 °F 29.97 in Calm     95% 0.00 in
02:48 57.9 °F 56.5 °F 29.97 in South 0.3 mph 1.6 mph 95% 0.00 in
02:53 57.9 °F 56.5 °F 29.97 in South 0.3 mph 1.6 mph 95% 0.00 in
02:58 57.7 °F 56.6 °F 29.97 in Calm     96% 0.00 in
03:03 57.7 °F 56.6 °F 29.97 in Calm     96% 0.00 in
03:08 57.7 °F 56.6 °F 29.97 in Calm     96% 0.00 in
03:13 57.5 °F 56.4 °F 29.96 in Calm     96% 0.00 in
03:18 57.7 °F 56.6 °F 29.96 in Calm   0.7 mph 96% 0.00 in
03:23 57.5 °F 56.4 °F 29.96 in North 0.2 mph 0.7 mph 96% 0.00 in
03:28 57.5 °F 56.4 °F 29.96 in North 0.2 mph 0.7 mph 96% 0.00 in
03:33 57.4 °F 56.5 °F 29.96 in Calm     97% 0.00 in
03:38 57.4 °F 56.5 °F 29.96 in Calm     97% 0.00 in
03:43 57.4 °F 56.5 °F 29.96 in Calm     97% 0.00 in
03:48 57.4 °F 56.5 °F 29.96 in North 0.1 mph 0.7 mph 97% 0.00 in
03:53 57.2 °F 56.3 °F 29.96 in North 0.1 mph 0.7 mph 97% 0.00 in
03:58 57.2 °F 56.3 °F 29.95 in Calm     97% 0.00 in
04:03 57.2 °F 56.3 °F 29.95 in Calm     97% 0.00 in
Export, Pennsylvania, USA
Compliments of Weather Underground